This is the latest recevied weather packets stored in our database for station/object F4AMY-13. If no packets are shown the sender has not sent any weather packets the latest 10 day(s).
| Time | Temp. | Humidity | Pressure | Rain* | Wind** | Luminosity | Snow |
|---|---|---|---|---|---|---|---|
| 1777655844 | 25° C | 44% | 1021.1 hPa | 0 mm | 12.07 m/s, ° | 27 W/m² | - |
| 1777655544 | 25.56° C | 42% | 1021.2 hPa | 0 mm | 12.96 m/s, ° | 29 W/m² | - |
| 1777655244 | 26.11° C | 41% | 1021.3 hPa | 0 mm | 14.31 m/s, ° | 32 W/m² | - |
| 1777654944 | 26.11° C | 39% | 1021.2 hPa | 0 mm | 16.09 m/s, ° | 36 W/m² | - |
| 1777654643 | 26.67° C | 38% | 1021.3 hPa | 0 mm | 18.78 m/s, ° | 42 W/m² | - |
| 1777654343 | 26.67° C | 36% | 1021 hPa | 0 mm | 22.8 m/s, ° | 51 W/m² | - |
| 1777654043 | 26.11° C | 38% | 1021.2 hPa | 0 mm | 24.59 m/s, ° | 55 W/m² | - |
| 1777653743 | 26.11° C | 39% | 1021 hPa | 0 mm | 116.23 m/s, ° | 260 W/m² | - |
| 1777653443 | 26.11° C | 36% | 1021 hPa | 0 mm | 121.59 m/s, ° | 272 W/m² | - |
| 1777653143 | 26.11° C | 36% | 1021.1 hPa | 0 mm | 104.16 m/s, ° | 233 W/m² | - |
| 1777652843 | 26.11° C | 39% | 1021 hPa | 0 mm | 113.55 m/s, ° | 254 W/m² | - |
| 1777652543 | 26.11° C | 40% | 1021 hPa | 0 mm | 132.32 m/s, ° | 296 W/m² | - |
| 1777652243 | 26.11° C | 39% | 1020.9 hPa | 0 mm | 113.1 m/s, ° | 253 W/m² | - |
| 1777651943 | 26.67° C | 40% | 1020.9 hPa | 0 mm | 110.87 m/s, ° | 248 W/m² | - |
| 1777651643 | 26.67° C | 40% | 1020.9 hPa | 0 mm | 110.87 m/s, ° | 248 W/m² | - |
| 1777651343 | 26.67° C | 38% | 1020.9 hPa | 0 mm | 130.09 m/s, ° | 291 W/m² | - |
| 1777651043 | 27.22° C | 39% | 1021 hPa | 0 mm | 91.2 m/s, ° | 204 W/m² | - |
| 1777650743 | 27.78° C | 37% | 1020.9 hPa | 0 mm | 99.69 m/s, ° | 223 W/m² | - |
| 1777650443 | 27.78° C | 38% | 1021.1 hPa | 0 mm | 56.33 m/s, ° | 126 W/m² | - |
| 1777650143 | 27.78° C | 36% | 1021.2 hPa | 0 mm | 136.35 m/s, ° | 305 W/m² | - |
| 1777649843 | 27.78° C | 37% | 1021.1 hPa | 0 mm | 129.19 m/s, ° | 289 W/m² | - |
| 1777649542 | 27.78° C | 36% | 1021.2 hPa | 0 mm | 152.44 m/s, ° | 341 W/m² | - |
| 1777649242 | 27.78° C | 35% | 1020.8 hPa | 0 mm | 160.49 m/s, ° | 359 W/m² | - |
| 1777648942 | 27.78° C | 37% | 1021.1 hPa | 0 mm | 161.38 m/s, ° | 361 W/m² | - |
| 1777648642 | 27.22° C | 34% | 1021 hPa | 0 mm | 163.62 m/s, ° | 366 W/m² | - |
* Rain latest hour (hover to see other rain measurements)
** Current wind speed in m/s (hover to see current wind gust speed)